sensor_id;sensor_type;location;lat;lon;timestamp;P1;P2;P0
13030;PMS7003;6582;54.644;9.760;2022-07-23T00:00:07;4.3;4.0;
13030;PMS7003;6582;54.644;9.760;2022-07-23T00:05:02;4.1;3.9;
13030;PMS7003;6582;54.644;9.760;2022-07-23T00:10:02;4.2;4.0;
13030;PMS7003;6582;54.644;9.760;2022-07-23T00:15:07;4.4;4.0;
13030;PMS7003;6582;54.644;9.760;2022-07-23T00:20:02;4.8;4.2;
13030;PMS7003;6582;54.644;9.760;2022-07-23T00:25:16;5.2;4.2;
13030;PMS7003;6582;54.644;9.760;2022-07-23T00:30:01;5.0;4.0;
13030;PMS7003;6582;54.644;9.760;2022-07-23T00:35:01;5.2;3.9;
13030;PMS7003;6582;54.644;9.760;2022-07-23T00:40:01;4.9;3.8;
13030;PMS7003;6582;54.644;9.760;2022-07-23T00:45:01;4.4;3.6;
13030;PMS7003;6582;54.644;9.760;2022-07-23T00:50:03;3.9;3.4;
13030;PMS7003;6582;54.644;9.760;2022-07-23T00:55:02;4.0;3.7;
13030;PMS7003;6582;54.644;9.760;2022-07-23T01:00:03;4.2;4.0;
13030;PMS7003;6582;54.644;9.760;2022-07-23T01:05:07;4.6;4.4;
13030;PMS7003;6582;54.644;9.760;2022-07-23T01:15:01;5.0;4.6;
13030;PMS7003;6582;54.644;9.760;2022-07-23T01:20:06;5.1;4.7;
13030;PMS7003;6582;54.644;9.760;2022-07-23T01:25:01;4.7;4.5;
13030;PMS7003;6582;54.644;9.760;2022-07-23T01:30:02;4.6;4.4;
13030;PMS7003;6582;54.644;9.760;2022-07-23T01:35:02;4.8;4.6;
13030;PMS7003;6582;54.644;9.760;2022-07-23T01:45:02;5.0;4.8;
13030;PMS7003;6582;54.644;9.760;2022-07-23T01:50:02;5.2;5.0;
13030;PMS7003;6582;54.644;9.760;2022-07-23T01:55:08;5.1;4.9;
13030;PMS7003;6582;54.644;9.760;2022-07-23T02:00:02;5.0;4.7;
13030;PMS7003;6582;54.644;9.760;2022-07-23T02:05:01;4.4;4.1;
13030;PMS7003;6582;54.644;9.760;2022-07-23T02:10:01;4.0;4.0;
13030;PMS7003;6582;54.644;9.760;2022-07-23T02:15:01;4.2;3.9;
13030;PMS7003;6582;54.644;9.760;2022-07-23T02:20:01;4.1;3.9;
13030;PMS7003;6582;54.644;9.760;2022-07-23T02:30:01;5.0;4.4;
13030;PMS7003;6582;54.644;9.760;2022-07-23T02:35:02;5.4;4.6;
13030;PMS7003;6582;54.644;9.760;2022-07-23T02:40:01;5.8;4.8;
13030;PMS7003;6582;54.644;9.760;2022-07-23T02:45:01;5.9;5.0;
13030;PMS7003;6582;54.644;9.760;2022-07-23T02:55:01;5.4;4.8;
13030;PMS7003;6582;54.644;9.760;2022-07-23T03:00:06;5.2;4.9;
13030;PMS7003;6582;54.644;9.760;2022-07-23T03:05:01;4.5;4.3;
13030;PMS7003;6582;54.644;9.760;2022-07-23T03:15:06;4.4;4.2;
13030;PMS7003;6582;54.644;9.760;2022-07-23T03:20:01;4.7;4.5;
13030;PMS7003;6582;54.644;9.760;2022-07-23T03:25:02;4.6;4.4;
13030;PMS7003;6582;54.644;9.760;2022-07-23T03:30:02;4.6;4.4;
13030;PMS7003;6582;54.644;9.760;2022-07-23T03:35:01;4.9;4.9;
13030;PMS7003;6582;54.644;9.760;2022-07-23T03:40:01;5.0;4.9;
13030;PMS7003;6582;54.644;9.760;2022-07-23T03:45:01;4.8;4.8;
13030;PMS7003;6582;54.644;9.760;2022-07-23T03:50:02;5.1;5.1;
13030;PMS7003;6582;54.644;9.760;2022-07-23T04:00:03;5.2;4.8;
13030;PMS7003;6582;54.644;9.760;2022-07-23T04:05:01;5.0;4.6;
13030;PMS7003;6582;54.644;9.760;2022-07-23T04:15:01;5.4;4.8;
13030;PMS7003;6582;54.644;9.760;2022-07-23T04:20:02;5.1;4.5;
13030;PMS7003;6582;54.644;9.760;2022-07-23T04:25:01;5.2;4.4;
13030;PMS7003;6582;54.644;9.760;2022-07-23T04:30:02;5.4;4.8;
13030;PMS7003;6582;54.644;9.760;2022-07-23T04:35:01;5.2;4.6;
13030;PMS7003;6582;54.644;9.760;2022-07-23T04:40:01;4.7;4.4;
13030;PMS7003;6582;54.644;9.760;2022-07-23T04:45:03;4.9;4.6;
13030;PMS7003;6582;54.644;9.760;2022-07-23T05:00:16;4.3;4.3;
13030;PMS7003;6582;54.644;9.760;2022-07-23T05:10:01;4.0;4.0;
13030;PMS7003;6582;54.644;9.760;2022-07-23T05:15:01;3.8;3.5;
13030;PMS7003;6582;54.644;9.760;2022-07-23T05:20:02;3.4;3.0;
13030;PMS7003;6582;54.644;9.760;2022-07-23T05:25:01;3.2;2.9;
13030;PMS7003;6582;54.644;9.760;2022-07-23T05:30:01;3.2;2.8;
13030;PMS7003;6582;54.644;9.760;2022-07-23T05:35:01;3.1;2.8;
13030;PMS7003;6582;54.644;9.760;2022-07-23T05:45:07;3.4;3.4;
13030;PMS7003;6582;54.644;9.760;2022-07-23T05:55:01;3.6;3.4;
13030;PMS7003;6582;54.644;9.760;2022-07-23T06:00:07;3.8;3.6;
13030;PMS7003;6582;54.644;9.760;2022-07-23T06:05:02;4.0;3.8;
13030;PMS7003;6582;54.644;9.760;2022-07-23T06:20:02;4.0;3.2;
13030;PMS7003;6582;54.644;9.760;2022-07-23T06:25:01;4.2;3.6;
13030;PMS7003;6582;54.644;9.760;2022-07-23T06:30:01;3.8;3.3;
13030;PMS7003;6582;54.644;9.760;2022-07-23T06:35:02;3.4;2.9;
13030;PMS7003;6582;54.644;9.760;2022-07-23T06:40:04;3.0;2.7;
13030;PMS7003;6582;54.644;9.760;2022-07-23T06:45:02;2.6;2.6;
13030;PMS7003;6582;54.644;9.760;2022-07-23T06:50:07;1.9;1.9;
13030;PMS7003;6582;54.644;9.760;2022-07-23T06:55:02;1.8;1.8;
13030;PMS7003;6582;54.644;9.760;2022-07-23T07:00:03;2.0;2.0;
13030;PMS7003;6582;54.644;9.760;2022-07-23T07:10:03;2.2;2.2;
13030;PMS7003;6582;54.644;9.760;2022-07-23T07:15:02;2.4;2.4;
13030;PMS7003;6582;54.644;9.760;2022-07-23T07:25:01;2.8;2.8;
13030;PMS7003;6582;54.644;9.760;2022-07-23T07:35:03;3.0;3.0;
13030;PMS7003;6582;54.644;9.760;2022-07-23T07:40:02;3.2;3.0;
13030;PMS7003;6582;54.644;9.760;2022-07-23T07:45:01;3.2;2.9;
13030;PMS7003;6582;54.644;9.760;2022-07-23T07:50:02;3.6;3.3;
13030;PMS7003;6582;54.644;9.760;2022-07-23T07:55:07;3.2;2.9;
13030;PMS7003;6582;54.644;9.760;2022-07-23T08:00:09;3.0;2.7;
13030;PMS7003;6582;54.644;9.760;2022-07-23T08:05:01;2.8;2.8;
13030;PMS7003;6582;54.644;9.760;2022-07-23T08:15:01;2.8;2.8;
13030;PMS7003;6582;54.644;9.760;2022-07-23T08:30:02;2.9;2.7;
13030;PMS7003;6582;54.644;9.760;2022-07-23T08:35:02;3.0;2.8;
13030;PMS7003;6582;54.644;9.760;2022-07-23T08:45:03;3.8;3.4;
13030;PMS7003;6582;54.644;9.760;2022-07-23T08:50:02;3.6;3.2;
13030;PMS7003;6582;54.644;9.760;2022-07-23T08:55:01;3.8;3.6;
13030;PMS7003;6582;54.644;9.760;2022-07-23T09:00:02;4.3;4.1;
13030;PMS7003;6582;54.644;9.760;2022-07-23T09:05:01;4.6;4.4;
13030;PMS7003;6582;54.644;9.760;2022-07-23T09:10:06;4.0;4.0;
13030;PMS7003;6582;54.644;9.760;2022-07-23T09:15:10;4.2;4.2;
13030;PMS7003;6582;54.644;9.760;2022-07-23T09:30:01;4.4;4.0;
13030;PMS7003;6582;54.644;9.760;2022-07-23T09:35:01;4.3;3.8;
13030;PMS7003;6582;54.644;9.760;2022-07-23T09:40:04;4.5;3.8;
13030;PMS7003;6582;54.644;9.760;2022-07-23T09:45:02;5.0;4.0;
13030;PMS7003;6582;54.644;9.760;2022-07-23T09:55:02;4.4;3.6;
13030;PMS7003;6582;54.644;9.760;2022-07-23T10:00:07;4.4;3.5;
13030;PMS7003;6582;54.644;9.760;2022-07-23T10:10:03;4.3;3.7;
13030;PMS7003;6582;54.644;9.760;2022-07-23T10:15:02;3.5;3.1;
13030;PMS7003;6582;54.644;9.760;2022-07-23T10:20:03;3.2;2.8;
13030;PMS7003;6582;54.644;9.760;2022-07-23T10:25:14;3.4;3.2;
13030;PMS7003;6582;54.644;9.760;2022-07-23T10:45:02;4.6;4.6;
13030;PMS7003;6582;54.644;9.760;2022-07-23T11:05:06;5.6;5.6;
13030;PMS7003;6582;54.644;9.760;2022-07-23T11:10:02;4.3;4.3;
13030;PMS7003;6582;54.644;9.760;2022-07-23T11:15:05;4.2;4.2;
13030;PMS7003;6582;54.644;9.760;2022-07-23T11:20:12;3.6;3.6;
13030;PMS7003;6582;54.644;9.760;2022-07-23T11:25:02;3.8;3.8;
13030;PMS7003;6582;54.644;9.760;2022-07-23T11:30:02;3.3;3.3;
13030;PMS7003;6582;54.644;9.760;2022-07-23T11:55:04;5.4;4.0;
13030;PMS7003;6582;54.644;9.760;2022-07-23T12:00:10;4.7;4.0;
13030;PMS7003;6582;54.644;9.760;2022-07-23T12:10:04;4.9;4.3;
13030;PMS7003;6582;54.644;9.760;2022-07-23T12:15:02;5.0;4.5;
13030;PMS7003;6582;54.644;9.760;2022-07-23T12:20:03;4.5;4.3;
13030;PMS7003;6582;54.644;9.760;2022-07-23T12:25:04;4.6;4.1;
13030;PMS7003;6582;54.644;9.760;2022-07-23T12:30:19;4.3;3.8;
13030;PMS7003;6582;54.644;9.760;2022-07-23T12:35:09;4.0;3.6;
13030;PMS7003;6582;54.644;9.760;2022-07-23T12:55:02;4.8;4.8;
13030;PMS7003;6582;54.644;9.760;2022-07-23T13:00:09;4.9;4.2;
13030;PMS7003;6582;54.644;9.760;2022-07-23T13:05:02;4.2;3.7;
13030;PMS7003;6582;54.644;9.760;2022-07-23T13:10:01;4.1;3.7;
13030;PMS7003;6582;54.644;9.760;2022-07-23T13:15:07;4.2;3.7;
13030;PMS7003;6582;54.644;9.760;2022-07-23T13:25:02;4.0;3.5;
13030;PMS7003;6582;54.644;9.760;2022-07-23T13:30:02;3.8;3.4;
13030;PMS7003;6582;54.644;9.760;2022-07-23T13:35:03;4.0;3.5;
13030;PMS7003;6582;54.644;9.760;2022-07-23T13:40:16;4.2;3.6;
13030;PMS7003;6582;54.644;9.760;2022-07-23T13:45:02;4.3;4.0;
13030;PMS7003;6582;54.644;9.760;2022-07-23T13:50:02;4.6;4.3;
13030;PMS7003;6582;54.644;9.760;2022-07-23T14:05:02;4.8;4.7;
13030;PMS7003;6582;54.644;9.760;2022-07-23T14:15:03;4.2;4.2;
13030;PMS7003;6582;54.644;9.760;2022-07-23T14:20:02;4.0;4.0;
13030;PMS7003;6582;54.644;9.760;2022-07-23T14:30:04;4.2;4.2;
13030;PMS7003;6582;54.644;9.760;2022-07-23T14:35:11;4.0;4.0;
13030;PMS7003;6582;54.644;9.760;2022-07-23T14:40:08;4.2;4.2;
13030;PMS7003;6582;54.644;9.760;2022-07-23T14:45:11;4.2;4.2;
13030;PMS7003;6582;54.644;9.760;2022-07-23T14:50:01;4.6;4.3;
13030;PMS7003;6582;54.644;9.760;2022-07-23T15:00:02;4.5;4.1;
13030;PMS7003;6582;54.644;9.760;2022-07-23T15:05:02;4.4;4.0;
13030;PMS7003;6582;54.644;9.760;2022-07-23T15:10:10;4.5;4.0;
13030;PMS7003;6582;54.644;9.760;2022-07-23T15:15:02;4.3;3.9;
13030;PMS7003;6582;54.644;9.760;2022-07-23T15:20:02;4.1;3.5;
13030;PMS7003;6582;54.644;9.760;2022-07-23T15:25:01;3.7;3.3;
13030;PMS7003;6582;54.644;9.760;2022-07-23T15:30:02;3.9;3.3;
13030;PMS7003;6582;54.644;9.760;2022-07-23T15:35:05;4.2;3.3;
13030;PMS7003;6582;54.644;9.760;2022-07-23T15:40:03;4.6;3.5;
13030;PMS7003;6582;54.644;9.760;2022-07-23T15:45:07;4.5;3.8;
13030;PMS7003;6582;54.644;9.760;2022-07-23T15:55:02;4.7;4.0;
13030;PMS7003;6582;54.644;9.760;2022-07-23T16:00:02;4.5;4.0;
13030;PMS7003;6582;54.644;9.760;2022-07-23T16:05:02;4.0;3.8;
13030;PMS7003;6582;54.644;9.760;2022-07-23T16:10:01;3.5;3.5;
13030;PMS7003;6582;54.644;9.760;2022-07-23T16:15:13;3.2;3.2;
13030;PMS7003;6582;54.644;9.760;2022-07-23T16:20:06;3.6;3.6;
13030;PMS7003;6582;54.644;9.760;2022-07-23T16:25:02;4.1;4.1;
13030;PMS7003;6582;54.644;9.760;2022-07-23T16:30:03;4.8;4.4;
13030;PMS7003;6582;54.644;9.760;2022-07-23T16:35:15;4.7;4.1;
13030;PMS7003;6582;54.644;9.760;2022-07-23T16:45:08;4.4;3.6;
13030;PMS7003;6582;54.644;9.760;2022-07-23T16:50:09;3.7;2.9;
13030;PMS7003;6582;54.644;9.760;2022-07-23T16:55:02;2.8;2.4;
13030;PMS7003;6582;54.644;9.760;2022-07-23T17:00:03;3.1;2.7;
13030;PMS7003;6582;54.644;9.760;2022-07-23T17:05:01;3.4;3.0;
13030;PMS7003;6582;54.644;9.760;2022-07-23T17:15:08;3.0;2.7;
13030;PMS7003;6582;54.644;9.760;2022-07-23T17:20:03;3.2;2.8;
13030;PMS7003;6582;54.644;9.760;2022-07-23T17:25:06;3.3;2.7;
13030;PMS7003;6582;54.644;9.760;2022-07-23T17:30:03;3.4;2.7;
13030;PMS7003;6582;54.644;9.760;2022-07-23T17:35:01;3.1;2.5;
13030;PMS7003;6582;54.644;9.760;2022-07-23T17:40:02;3.2;2.7;
13030;PMS7003;6582;54.644;9.760;2022-07-23T17:45:08;3.6;2.9;
13030;PMS7003;6582;54.644;9.760;2022-07-23T17:50:03;3.8;3.3;
13030;PMS7003;6582;54.644;9.760;2022-07-23T17:55:01;3.6;3.4;
13030;PMS7003;6582;54.644;9.760;2022-07-23T18:00:02;4.0;3.8;
13030;PMS7003;6582;54.644;9.760;2022-07-23T18:05:01;4.2;4.0;
13030;PMS7003;6582;54.644;9.760;2022-07-23T18:15:12;4.0;4.0;
13030;PMS7003;6582;54.644;9.760;2022-07-23T18:20:03;3.8;3.8;
13030;PMS7003;6582;54.644;9.760;2022-07-23T18:25:03;4.4;4.1;
13030;PMS7003;6582;54.644;9.760;2022-07-23T18:30:02;4.4;4.0;
13030;PMS7003;6582;54.644;9.760;2022-07-23T18:40:03;4.6;4.3;
13030;PMS7003;6582;54.644;9.760;2022-07-23T18:50:09;5.0;4.7;
13030;PMS7003;6582;54.644;9.760;2022-07-23T18:55:03;4.7;4.6;
13030;PMS7003;6582;54.644;9.760;2022-07-23T19:00:03;4.7;4.6;
13030;PMS7003;6582;54.644;9.760;2022-07-23T19:05:02;5.1;5.0;
13030;PMS7003;6582;54.644;9.760;2022-07-23T19:10:03;4.9;4.8;
13030;PMS7003;6582;54.644;9.760;2022-07-23T19:15:08;4.7;4.6;
13030;PMS7003;6582;54.644;9.760;2022-07-23T19:20:07;4.9;4.9;
13030;PMS7003;6582;54.644;9.760;2022-07-23T19:25:02;5.1;5.1;
13030;PMS7003;6582;54.644;9.760;2022-07-23T19:30:08;4.7;4.7;
13030;PMS7003;6582;54.644;9.760;2022-07-23T19:35:02;5.2;5.0;
13030;PMS7003;6582;54.644;9.760;2022-07-23T19:40:03;5.4;5.2;
13030;PMS7003;6582;54.644;9.760;2022-07-23T19:45:07;5.3;5.1;
13030;PMS7003;6582;54.644;9.760;2022-07-23T19:55:08;5.4;4.9;
13030;PMS7003;6582;54.644;9.760;2022-07-23T20:00:03;5.9;5.4;
13030;PMS7003;6582;54.644;9.760;2022-07-23T20:10:02;6.1;5.7;
13030;PMS7003;6582;54.644;9.760;2022-07-23T20:15:03;6.1;5.7;
13030;PMS7003;6582;54.644;9.760;2022-07-23T20:20:03;6.2;5.8;
13030;PMS7003;6582;54.644;9.760;2022-07-23T20:30:02;6.0;5.7;
13030;PMS7003;6582;54.644;9.760;2022-07-23T20:35:03;6.1;5.9;
13030;PMS7003;6582;54.644;9.760;2022-07-23T20:40:02;6.6;5.9;
13030;PMS7003;6582;54.644;9.760;2022-07-23T20:45:01;6.4;6.0;
13030;PMS7003;6582;54.644;9.760;2022-07-23T20:55:03;6.5;6.0;
13030;PMS7003;6582;54.644;9.760;2022-07-23T21:00:02;6.6;6.0;
13030;PMS7003;6582;54.644;9.760;2022-07-23T21:05:02;6.8;6.0;
13030;PMS7003;6582;54.644;9.760;2022-07-23T21:10:01;7.0;6.5;
13030;PMS7003;6582;54.644;9.760;2022-07-23T21:15:01;7.0;6.5;
13030;PMS7003;6582;54.644;9.760;2022-07-23T21:20:02;6.8;6.4;
13030;PMS7003;6582;54.644;9.760;2022-07-23T21:25:01;7.0;6.6;
13030;PMS7003;6582;54.644;9.760;2022-07-23T21:30:03;7.0;6.9;
13030;PMS7003;6582;54.644;9.760;2022-07-23T21:35:04;6.6;6.6;
13030;PMS7003;6582;54.644;9.760;2022-07-23T21:45:07;6.6;6.6;
13030;PMS7003;6582;54.644;9.760;2022-07-23T21:50:06;7.1;7.1;
13030;PMS7003;6582;54.644;9.760;2022-07-23T22:00:05;6.9;6.9;
13030;PMS7003;6582;54.644;9.760;2022-07-23T22:05:01;7.0;6.8;
13030;PMS7003;6582;54.644;9.760;2022-07-23T22:10:03;7.2;7.0;
13030;PMS7003;6582;54.644;9.760;2022-07-23T22:15:01;7.0;6.7;
13030;PMS7003;6582;54.644;9.760;2022-07-23T22:25:15;7.4;7.2;
13030;PMS7003;6582;54.644;9.760;2022-07-23T22:30:04;7.5;7.2;
13030;PMS7003;6582;54.644;9.760;2022-07-23T22:35:02;8.1;7.9;
13030;PMS7003;6582;54.644;9.760;2022-07-23T22:40:02;8.8;8.0;
13030;PMS7003;6582;54.644;9.760;2022-07-23T22:45:01;9.1;8.1;
13030;PMS7003;6582;54.644;9.760;2022-07-23T22:50:12;9.0;7.7;
13030;PMS7003;6582;54.644;9.760;2022-07-23T22:55:07;9.1;7.8;
13030;PMS7003;6582;54.644;9.760;2022-07-23T23:00:08;9.4;7.8;
13030;PMS7003;6582;54.644;9.760;2022-07-23T23:05:06;9.0;7.8;
13030;PMS7003;6582;54.644;9.760;2022-07-23T23:10:02;8.4;7.4;
13030;PMS7003;6582;54.644;9.760;2022-07-23T23:15:02;8.2;7.5;
13030;PMS7003;6582;54.644;9.760;2022-07-23T23:20:03;7.9;7.2;
13030;PMS7003;6582;54.644;9.760;2022-07-23T23:25:01;7.0;6.7;
13030;PMS7003;6582;54.644;9.760;2022-07-23T23:30:06;6.7;6.7;
13030;PMS7003;6582;54.644;9.760;2022-07-23T23:40:01;7.5;7.5;
13030;PMS7003;6582;54.644;9.760;2022-07-23T23:45:01;7.7;7.5;
13030;PMS7003;6582;54.644;9.760;2022-07-23T23:50:03;8.7;8.1;
13030;PMS7003;6582;54.644;9.760;2022-07-23T23:55:01;8.6;8.0;
